Time;durP1;ratioP1;P1;durP2;ratioP2;P2;SDS_P1;SDS_P2;PMS_P1;PMS_P2;Temp;Humidity;BMP_temperature;BMP_pressure;BME280_temperature;BME280_humidity;BME280_pressure;Samples;Min_cycle;Max_cycle;Signal;HPM_P1;HPM_P2
2023/10/21 00:02:21;;;;;;;16.17;9.63;;;9.80;99.90;;;;;;5102678;28;20043;-73
2023/10/21 00:04:46;;;;;;;16.40;9.90;;;9.80;99.90;;;;;;5121261;28;20074;-73
2023/10/21 00:07:12;;;;;;;15.73;9.90;;;9.70;99.90;;;;;;5121603;28;20095;-73
2023/10/21 00:09:38;;;;;;;13.48;9.27;;;9.70;99.90;;;;;;5121636;28;20039;-73
2023/10/21 00:12:06;;;;;;;15.27;9.93;;;9.60;99.90;;;;;;5122996;28;20028;-73
2023/10/21 00:14:33;;;;;;;16.13;10.32;;;9.70;99.90;;;;;;5117440;28;20048;-73
2023/10/21 00:16:59;;;;;;;14.68;10.35;;;9.70;99.90;;;;;;5121617;28;20043;-73
2023/10/21 00:19:25;;;;;;;16.48;10.60;;;9.80;99.90;;;;;;5099349;28;20048;-73
2023/10/21 00:21:53;;;;;;;18.17;9.98;;;9.80;99.90;;;;;;5104739;28;20153;-72
2023/10/21 00:24:19;;;;;;;18.15;10.45;;;9.80;99.90;;;;;;5121689;28;20051;-72
2023/10/21 00:26:47;;;;;;;21.55;10.23;;;9.80;99.90;;;;;;5120333;28;20043;-72
2023/10/21 00:29:14;;;;;;;15.32;9.98;;;9.90;99.90;;;;;;5127307;27;20095;-73
2023/10/21 00:31:41;;;;;;;17.55;9.80;;;9.90;99.90;;;;;;5127642;28;20079;-74
2023/10/21 00:34:07;;;;;;;21.20;10.73;;;9.90;99.90;;;;;;5133655;28;20046;-73
2023/10/21 00:36:32;;;;;;;16.13;9.80;;;10.00;99.90;;;;;;5106119;28;20035;-73
2023/10/21 00:38:58;;;;;;;17.88;10.13;;;10.00;99.90;;;;;;5124930;28;20046;-73
2023/10/21 00:41:24;;;;;;;15.10;9.43;;;10.00;99.90;;;;;;5121756;28;20069;-73
2023/10/21 00:43:50;;;;;;;17.67;10.38;;;10.10;99.90;;;;;;5127792;28;20050;-74
2023/10/21 00:46:17;;;;;;;17.25;9.63;;;10.10;99.90;;;;;;5124818;28;20031;-73
2023/10/21 00:48:45;;;;;;;18.27;9.98;;;10.10;99.90;;;;;;5112906;28;20055;-73
2023/10/21 00:51:10;;;;;;;18.25;10.25;;;10.00;99.90;;;;;;5127086;27;20035;-74
2023/10/21 00:53:37;;;;;;;16.48;10.07;;;10.00;99.90;;;;;;5109728;27;20067;-73
2023/10/21 00:56:05;;;;;;;15.57;9.27;;;10.00;99.90;;;;;;5132469;27;20047;-73
2023/10/21 00:58:32;;;;;;;15.43;9.70;;;9.90;99.90;;;;;;5145528;27;20043;-72
2023/10/21 01:01:02;;;;;;;17.90;9.65;;;9.90;99.90;;;;;;5127867;27;20035;-73
2023/10/21 01:03:29;;;;;;;21.95;10.02;;;9.80;99.90;;;;;;5143193;27;20039;-72
2023/10/21 01:05:55;;;;;;;16.17;8.82;;;9.70;99.90;;;;;;5129855;27;20069;-73
2023/10/21 01:08:21;;;;;;;16.15;9.70;;;9.60;99.90;;;;;;5092198;27;20486;-72
2023/10/21 01:10:47;;;;;;;18.60;9.50;;;9.50;99.90;;;;;;5126868;27;20047;-72
2023/10/21 01:13:13;;;;;;;13.15;9.35;;;9.50;99.90;;;;;;5127837;27;20448;-72
2023/10/21 01:15:39;;;;;;;19.77;10.82;;;9.50;99.90;;;;;;5107336;28;20047;-72
2023/10/21 01:18:06;;;;;;;14.30;10.27;;;9.50;99.90;;;;;;5139834;27;20035;-74
2023/10/21 01:20:32;;;;;;;17.63;10.18;;;9.40;99.90;;;;;;5127817;27;20058;-72
2023/10/21 01:22:59;;;;;;;19.35;9.38;;;9.50;99.90;;;;;;5137818;27;20118;-73
2023/10/21 01:25:25;;;;;;;15.85;9.95;;;9.40;99.90;;;;;;5132536;27;20046;-73
2023/10/21 01:27:55;;;;;;;15.10;9.73;;;9.40;99.90;;;;;;5125355;27;20153;-74
2023/10/21 01:30:21;;;;;;;15.70;9.52;;;9.40;99.90;;;;;;5107538;27;20055;-73
2023/10/21 01:32:48;;;;;;;19.00;10.48;;;9.40;99.90;;;;;;5145810;27;20091;-73
2023/10/21 01:35:14;;;;;;;14.80;9.30;;;9.40;99.90;;;;;;5118873;28;20093;-73
2023/10/21 01:37:42;;;;;;;15.88;9.70;;;9.40;99.90;;;;;;5143319;27;20068;-72
2023/10/21 01:40:10;;;;;;;14.90;9.20;;;9.40;99.90;;;;;;5132580;27;20039;-72
2023/10/21 01:42:36;;;;;;;16.20;9.75;;;9.40;99.90;;;;;;5147043;27;20114;-73
2023/10/21 01:45:04;;;;;;;19.73;10.07;;;9.30;99.90;;;;;;5126197;27;20047;-74
2023/10/21 01:47:30;;;;;;;17.13;9.45;;;9.30;99.90;;;;;;5146413;27;20402;-73
2023/10/21 01:49:57;;;;;;;14.05;8.80;;;9.30;99.90;;;;;;5126406;27;20043;-73
2023/10/21 01:52:23;;;;;;;15.52;9.20;;;9.30;99.90;;;;;;5145640;27;20039;-72
2023/10/21 01:54:50;;;;;;;14.57;9.13;;;9.30;99.90;;;;;;5129627;27;20043;-73
2023/10/21 01:57:15;;;;;;;13.95;9.02;;;9.30;99.90;;;;;;5106268;28;20047;-73
2023/10/21 01:59:41;;;;;;;15.18;8.70;;;9.30;99.90;;;;;;5117752;27;20429;-72
2023/10/21 02:02:07;;;;;;;13.65;8.50;;;9.30;99.90;;;;;;5108098;27;20039;-73
2023/10/21 02:04:33;;;;;;;17.80;9.60;;;9.30;99.90;;;;;;5127584;27;20070;-73
2023/10/21 02:06:59;;;;;;;15.20;8.27;;;9.30;99.90;;;;;;5126264;27;20039;-73
2023/10/21 02:09:24;;;;;;;14.48;8.57;;;9.20;99.90;;;;;;5144873;27;20122;-72
2023/10/21 02:11:54;;;;;;;19.15;8.57;;;9.20;99.90;;;;;;5145914;27;20060;-72
2023/10/21 02:14:22;;;;;;;17.17;8.88;;;9.20;99.90;;;;;;5143751;27;20081;-73
2023/10/21 02:16:55;;;;;;;19.63;8.55;;;9.20;99.90;;;;;;5090200;28;20052;-73
2023/10/21 02:19:21;;;;;;;55.85;12.18;;;9.20;99.90;;;;;;5106556;27;20078;-74
2023/10/21 02:21:47;;;;;;;12.52;7.60;;;9.10;99.90;;;;;;5110181;27;20043;-73
2023/10/21 02:24:13;;;;;;;16.00;8.98;;;9.10;99.90;;;;;;5143995;27;20051;-72
2023/10/21 02:26:40;;;;;;;17.42;9.55;;;9.10;99.90;;;;;;5143209;27;20027;-73
2023/10/21 02:29:06;;;;;;;15.50;9.00;;;9.10;99.90;;;;;;5144702;27;20055;-73
2023/10/21 02:31:32;;;;;;;14.48;9.15;;;9.10;99.90;;;;;;5107988;27;20061;-72
2023/10/21 02:33:58;;;;;;;14.70;9.13;;;9.10;99.90;;;;;;5127082;27;20047;-72
2023/10/21 02:36:24;;;;;;;13.93;8.77;;;9.10;99.90;;;;;;5137385;27;20073;-73
2023/10/21 02:38:53;;;;;;;13.63;8.43;;;9.20;99.90;;;;;;5130129;27;20502;-73
2023/10/21 02:41:19;;;;;;;14.80;8.77;;;9.20;99.90;;;;;;5125709;27;20054;-72
2023/10/21 02:43:45;;;;;;;14.88;9.38;;;9.20;99.90;;;;;;5106438;27;20040;-73
2023/10/21 02:46:13;;;;;;;14.43;8.73;;;9.20;99.90;;;;;;5143924;27;20042;-73
2023/10/21 02:48:39;;;;;;;15.38;8.90;;;9.20;99.90;;;;;;5143471;27;20049;-70
2023/10/21 02:51:17;;;;;;;15.23;9.43;;;9.20;99.90;;;;;;5144927;27;20035;-71
2023/10/21 02:53:43;;;;;;;13.50;8.30;;;9.20;99.90;;;;;;5126618;27;20042;-70
2023/10/21 02:56:13;;;;;;;16.02;9.35;;;9.20;99.90;;;;;;5110443;27;20039;-70
2023/10/21 02:58:39;;;;;;;15.07;9.25;;;9.20;99.90;;;;;;5121594;27;20043;-72
2023/10/21 03:01:15;;;;;;;14.23;9.20;;;9.20;99.90;;;;;;5107815;27;20060;-72
2023/10/21 03:03:46;;;;;;;15.25;8.38;;;9.20;99.90;;;;;;5135345;27;20467;-72
2023/10/21 03:06:13;;;;;;;15.02;8.73;;;9.20;99.90;;;;;;5141464;27;20038;-72
2023/10/21 03:08:39;;;;;;;13.88;8.35;;;9.30;99.90;;;;;;5133342;27;20088;-71
2023/10/21 03:11:06;;;;;;;13.30;8.30;;;9.30;99.90;;;;;;5126825;27;20050;-72
2023/10/21 03:13:32;;;;;;;16.17;9.18;;;9.30;99.90;;;;;;5143207;27;20046;-73
2023/10/21 03:15:59;;;;;;;14.05;8.98;;;9.40;99.90;;;;;;5125753;27;20050;-72
2023/10/21 03:18:25;;;;;;;13.68;7.85;;;9.40;99.90;;;;;;5134690;27;20047;-73
2023/10/21 03:20:51;;;;;;;11.65;6.93;;;9.40;99.90;;;;;;5137096;27;20067;-72
2023/10/21 03:23:17;;;;;;;16.75;8.32;;;9.40;99.90;;;;;;5107986;27;20058;-72
2023/10/21 03:25:43;;;;;;;15.00;8.45;;;9.50;99.90;;;;;;5114991;27;20043;-73
2023/10/21 03:28:09;;;;;;;13.88;8.35;;;9.50;99.90;;;;;;5116824;27;20041;-72
2023/10/21 03:30:34;;;;;;;13.70;7.80;;;9.60;99.90;;;;;;5112723;27;20054;-74
2023/10/21 03:33:02;;;;;;;14.55;8.93;;;9.50;99.90;;;;;;5130396;27;20035;-72
2023/10/21 03:35:28;;;;;;;14.90;7.93;;;9.60;99.90;;;;;;5142831;27;20054;-73
2023/10/21 03:37:53;;;;;;;13.30;8.30;;;9.60;99.90;;;;;;5126360;27;20039;-72
2023/10/21 03:40:19;;;;;;;14.18;8.30;;;9.60;99.90;;;;;;5116210;27;20053;-72
2023/10/21 03:42:44;;;;;;;11.35;7.72;;;9.60;99.90;;;;;;5088109;28;20039;-73
2023/10/21 03:45:10;;;;;;;12.38;7.47;;;9.60;99.90;;;;;;5094617;28;20044;-73
2023/10/21 03:47:36;;;;;;;12.05;7.57;;;9.60;99.90;;;;;;5108084;27;20055;-73
2023/10/21 03:50:03;;;;;;;12.68;7.80;;;9.60;99.90;;;;;;5127634;27;20055;-73
2023/10/21 03:52:28;;;;;;;12.10;8.00;;;9.70;99.90;;;;;;5142310;27;20063;-72
2023/10/21 03:54:54;;;;;;;12.20;8.10;;;9.70;99.90;;;;;;5143901;27;20038;-72
2023/10/21 03:57:21;;;;;;;13.45;7.93;;;9.70;99.90;;;;;;5115445;28;20130;-71
2023/10/21 03:59:47;;;;;;;12.05;7.72;;;9.70;99.90;;;;;;5139585;27;20040;-72
2023/10/21 04:02:12;;;;;;;12.85;7.43;;;9.70;99.90;;;;;;5106123;27;20058;-72
2023/10/21 04:04:38;;;;;;;11.98;7.50;;;9.80;99.90;;;;;;5143787;27;20038;-72
2023/10/21 04:07:05;;;;;;;10.70;6.95;;;9.80;99.90;;;;;;5123968;27;20144;-72
2023/10/21 04:09:31;;;;;;;12.73;7.47;;;9.80;99.90;;;;;;5142482;27;20069;-74
2023/10/21 04:11:57;;;;;;;14.00;7.35;;;9.80;99.90;;;;;;5104836;28;20078;-72
2023/10/21 04:14:22;;;;;;;11.18;7.18;;;9.80;99.90;;;;;;5083448;28;20047;-72
2023/10/21 04:16:49;;;;;;;12.43;6.90;;;9.80;99.90;;;;;;5106680;27;20095;-72
2023/10/21 04:19:15;;;;;;;11.48;7.03;;;9.80;99.90;;;;;;5106089;27;20039;-73
2023/10/21 04:21:41;;;;;;;11.50;6.95;;;9.80;99.90;;;;;;5127231;27;20039;-72
2023/10/21 04:24:07;;;;;;;9.75;6.82;;;9.80;99.90;;;;;;5097400;28;20054;-72
2023/10/21 04:26:33;;;;;;;9.00;6.13;;;9.80;99.90;;;;;;5104280;28;20130;-72
2023/10/21 04:28:58;;;;;;;11.02;6.50;;;9.70;99.90;;;;;;5130362;27;20093;-72
2023/10/21 04:31:24;;;;;;;11.65;6.93;;;9.70;99.90;;;;;;5099208;28;20051;-72
2023/10/21 04:33:50;;;;;;;10.43;6.93;;;9.70;99.90;;;;;;5130954;28;20501;-70
2023/10/21 04:36:19;;;;;;;10.45;6.68;;;9.60;99.90;;;;;;5126864;28;20047;-70
2023/10/21 04:38:45;;;;;;;9.63;6.45;;;9.60;99.90;;;;;;5125961;28;20043;-70
2023/10/21 04:41:10;;;;;;;9.88;6.55;;;9.60;99.90;;;;;;5140089;28;20043;-71
2023/10/21 04:43:36;;;;;;;9.75;6.13;;;9.60;99.90;;;;;;5124635;28;20106;-70
2023/10/21 04:46:02;;;;;;;9.77;6.97;;;9.60;99.90;;;;;;5095875;28;20081;-70
2023/10/21 04:48:28;;;;;;;8.18;5.47;;;9.60;99.90;;;;;;5113124;28;20043;-70
2023/10/21 04:50:54;;;;;;;10.00;6.75;;;9.60;99.90;;;;;;5124744;28;20042;-70
2023/10/21 04:53:19;;;;;;;10.70;6.82;;;9.60;99.90;;;;;;5140737;28;20046;-70
2023/10/21 04:55:45;;;;;;;11.75;6.72;;;9.60;99.90;;;;;;5122851;28;20104;-70
2023/10/21 04:58:11;;;;;;;10.52;6.07;;;9.60;99.90;;;;;;5124044;28;20044;-70
2023/10/21 05:00:36;;;;;;;9.98;6.40;;;9.60;99.90;;;;;;5106979;28;20042;-70
2023/10/21 05:03:02;;;;;;;9.07;6.63;;;9.90;99.90;;;;;;5071611;28;20135;-70
2023/10/21 05:05:28;;;;;;;8.75;5.85;;;9.60;99.90;;;;;;5131963;28;20112;-70
2023/10/21 05:07:54;;;;;;;8.70;5.93;;;9.70;99.90;;;;;;5086397;28;20031;-70
2023/10/21 05:10:19;;;;;;;10.38;6.13;;;9.70;99.90;;;;;;5082370;28;20075;-70
2023/10/21 05:12:45;;;;;;;10.30;6.63;;;9.70;99.90;;;;;;5124829;28;20043;-70
2023/10/21 05:15:11;;;;;;;9.02;6.00;;;9.70;99.90;;;;;;5126981;28;20091;-71
2023/10/21 05:17:37;;;;;;;13.93;7.07;;;9.80;99.90;;;;;;5107511;28;20035;-70
2023/10/21 05:20:03;;;;;;;8.55;5.07;;;9.70;99.90;;;;;;5074621;28;20039;-70
2023/10/21 05:22:29;;;;;;;9.50;5.45;;;9.70;99.90;;;;;;5106267;28;20047;-70
2023/10/21 05:24:55;;;;;;;7.63;5.32;;;9.70;99.90;;;;;;5103962;28;20054;-71
2023/10/21 05:27:21;;;;;;;8.88;5.80;;;9.80;99.90;;;;;;5122751;28;20073;-70
2023/10/21 05:29:47;;;;;;;7.28;5.75;;;9.70;99.90;;;;;;5099520;28;20060;-70
2023/10/21 05:32:14;;;;;;;15.90;5.95;;;9.80;99.90;;;;;;5117420;28;20059;-70
2023/10/21 05:34:41;;;;;;;8.18;5.30;;;9.80;99.90;;;;;;5120663;28;20104;-71
2023/10/21 05:37:07;;;;;;;8.65;5.20;;;9.80;99.90;;;;;;5085004;28;20036;-71
2023/10/21 05:39:32;;;;;;;7.93;5.30;;;9.80;99.90;;;;;;5120696;28;20065;-72
2023/10/21 05:41:58;;;;;;;8.13;5.07;;;9.80;99.90;;;;;;5087125;28;20048;-71
2023/10/21 05:44:24;;;;;;;10.48;5.45;;;9.80;99.90;;;;;;5115286;28;20119;-71
2023/10/21 05:46:50;;;;;;;6.45;4.18;;;9.80;99.90;;;;;;5123571;28;20048;-71
2023/10/21 05:49:16;;;;;;;9.60;5.28;;;9.80;99.90;;;;;;5122641;28;20044;-71
2023/10/21 05:51:42;;;;;;;7.90;5.35;;;9.90;99.90;;;;;;5086959;28;20104;-72
2023/10/21 05:54:07;;;;;;;7.60;4.55;;;9.90;99.90;;;;;;5121690;28;20047;-71
2023/10/21 05:56:33;;;;;;;8.02;5.10;;;9.90;99.90;;;;;;5106537;28;20126;-71
2023/10/21 05:58:59;;;;;;;8.52;4.85;;;9.90;99.90;;;;;;5069594;28;20047;-72
2023/10/21 06:01:24;;;;;;;8.45;4.82;;;9.90;99.90;;;;;;5115048;28;20059;-72
2023/10/21 06:03:50;;;;;;;7.47;5.10;;;9.90;99.90;;;;;;5087095;28;20036;-71
2023/10/21 06:06:17;;;;;;;7.20;5.05;;;9.90;99.90;;;;;;5110781;28;20392;-71
2023/10/21 06:08:44;;;;;;;9.02;5.00;;;9.90;99.90;;;;;;5106437;28;20050;-71
2023/10/21 06:11:10;;;;;;;7.38;4.97;;;9.90;99.90;;;;;;5105262;28;20032;-71
2023/10/21 06:13:35;;;;;;;6.18;4.40;;;10.00;99.90;;;;;;5106097;28;20130;-71
2023/10/21 06:16:01;;;;;;;7.32;4.55;;;10.00;99.90;;;;;;5089804;28;20099;-70
2023/10/21 06:18:27;;;;;;;7.38;4.50;;;10.00;99.90;;;;;;5104839;28;20039;-72
2023/10/21 06:20:53;;;;;;;6.90;4.78;;;10.00;99.90;;;;;;5124351;28;20036;-71
2023/10/21 06:23:19;;;;;;;8.02;4.65;;;10.10;99.90;;;;;;5104128;28;20094;-71
2023/10/21 06:25:45;;;;;;;8.30;4.40;;;10.20;99.90;;;;;;5123223;28;20036;-71
2023/10/21 06:28:13;;;;;;;8.50;4.88;;;9.50;99.90;;;;;;5121181;28;20043;-73
2023/10/21 06:30:42;;;;;;;6.60;4.57;;;10.30;99.90;;;;;;5133260;27;20047;-72
2023/10/21 06:33:11;;;;;;;8.35;4.80;;;10.40;99.90;;;;;;5125001;28;20380;-71
2023/10/21 06:35:37;;;;;;;9.00;5.10;;;10.50;99.90;;;;;;5122206;28;20134;-72
2023/10/21 06:38:05;;;;;;;8.95;5.25;;;10.50;99.90;;;;;;5112003;28;20127;-71
2023/10/21 06:40:31;;;;;;;7.70;4.75;;;10.60;99.90;;;;;;5100819;28;20522;-72
2023/10/21 06:42:57;;;;;;;8.32;4.97;;;10.60;99.90;;;;;;5121685;28;20044;-72
2023/10/21 06:45:23;;;;;;;10.40;5.50;;;10.60;99.90;;;;;;5102074;28;20107;-72
2023/10/21 06:47:49;;;;;;;9.32;4.82;;;10.70;99.90;;;;;;5071366;28;20047;-73
2023/10/21 06:50:15;;;;;;;7.07;5.20;;;10.70;99.90;;;;;;5122870;28;20039;-72
2023/10/21 06:52:40;;;;;;;8.30;5.03;;;10.80;99.90;;;;;;5131057;27;20043;-73
2023/10/21 06:55:08;;;;;;;8.57;5.32;;;10.80;99.90;;;;;;5129861;27;20062;-72
2023/10/21 06:57:33;;;;;;;8.27;4.85;;;10.90;99.90;;;;;;5104262;28;20140;-72
2023/10/21 06:59:59;;;;;;;8.52;5.38;;;10.90;99.90;;;;;;5084770;28;20036;-73
2023/10/21 07:02:25;;;;;;;8.18;4.90;;;10.90;99.90;;;;;;5102029;27;20031;-72
2023/10/21 07:04:51;;;;;;;8.15;4.75;;;11.00;99.90;;;;;;5108982;27;20043;-73
2023/10/21 07:07:17;;;;;;;6.78;4.50;;;11.00;99.90;;;;;;5126551;27;20048;-72
2023/10/21 07:09:42;;;;;;;8.40;4.97;;;11.00;99.90;;;;;;5100908;28;20044;-72
2023/10/21 07:12:09;;;;;;;11.05;5.22;;;11.10;99.90;;;;;;5121461;28;20076;-72
2023/10/21 07:14:35;;;;;;;8.07;4.90;;;11.10;99.90;;;;;;5123260;27;20047;-72
2023/10/21 07:17:01;;;;;;;8.07;4.75;;;11.10;99.90;;;;;;5124102;28;20417;-72
2023/10/21 07:19:26;;;;;;;7.43;5.20;;;11.20;99.90;;;;;;5090630;28;20061;-71
2023/10/21 07:21:52;;;;;;;7.88;4.85;;;11.10;99.90;;;;;;5068267;28;20040;-72
2023/10/21 07:24:18;;;;;;;7.63;5.20;;;11.20;99.90;;;;;;5100029;28;20032;-72
2023/10/21 07:26:44;;;;;;;7.47;5.30;;;11.20;99.90;;;;;;5102891;27;20044;-72
2023/10/21 07:29:10;;;;;;;10.52;5.80;;;11.30;99.90;;;;;;5110188;27;20051;-72
2023/10/21 07:31:36;;;;;;;9.20;5.32;;;11.30;99.90;;;;;;5086650;28;20075;-71
2023/10/21 07:34:02;;;;;;;7.97;4.47;;;11.40;99.90;;;;;;5132011;27;20035;-71
2023/10/21 07:36:28;;;;;;;7.63;5.22;;;11.40;99.90;;;;;;5087846;27;20108;-71
2023/10/21 07:38:53;;;;;;;8.43;5.18;;;11.40;99.90;;;;;;5094543;28;20127;-72
2023/10/21 07:41:19;;;;;;;8.88;4.93;;;11.50;99.90;;;;;;5094540;28;20035;-72
2023/10/21 07:43:45;;;;;;;8.40;4.90;;;11.50;99.90;;;;;;5086193;27;20047;-71
2023/10/21 07:46:12;;;;;;;8.95;4.88;;;11.50;99.90;;;;;;5099610;27;20068;-71
2023/10/21 07:48:39;;;;;;;8.40;4.90;;;11.50;99.90;;;;;;5104348;28;20054;-72
2023/10/21 07:51:05;;;;;;;8.07;4.75;;;11.60;99.90;;;;;;5135982;27;20047;-71
2023/10/21 07:53:31;;;;;;;7.38;4.88;;;11.70;99.90;;;;;;5091242;28;20040;-72
2023/10/21 07:55:57;;;;;;;11.50;6.13;;;11.70;99.90;;;;;;5110126;27;20065;-72
2023/10/21 07:58:23;;;;;;;10.13;5.72;;;11.70;99.90;;;;;;5118838;28;20040;-72
2023/10/21 08:00:48;;;;;;;8.60;5.20;;;11.80;99.90;;;;;;5102662;28;20055;-72
2023/10/21 08:03:14;;;;;;;8.23;5.78;;;12.00;99.90;;;;;;5122486;28;20095;-71
2023/10/21 08:05:40;;;;;;;9.82;5.30;;;12.10;99.90;;;;;;5098464;28;20031;-71
2023/10/21 08:08:06;;;;;;;9.48;5.88;;;12.20;99.90;;;;;;5089606;28;20032;-71
2023/10/21 08:10:33;;;;;;;9.80;6.10;;;12.30;99.90;;;;;;5077055;28;20076;-71
2023/10/21 08:12:59;;;;;;;9.45;5.68;;;12.40;99.90;;;;;;5104232;28;20032;-71
2023/10/21 08:15:25;;;;;;;8.80;5.80;;;12.40;99.90;;;;;;5105916;27;20117;-71
2023/10/21 08:17:51;;;;;;;7.68;5.50;;;12.40;99.90;;;;;;5093081;28;20032;-71
2023/10/21 08:20:17;;;;;;;6.78;5.15;;;12.50;99.90;;;;;;5066698;28;20072;-71
2023/10/21 08:22:43;;;;;;;9.95;5.80;;;12.60;99.90;;;;;;5064367;28;20075;-71
2023/10/21 08:25:09;;;;;;;7.82;5.90;;;12.60;99.90;;;;;;5101663;28;20052;-72
2023/10/21 08:27:36;;;;;;;8.68;5.07;;;12.60;99.90;;;;;;5083469;28;20044;-71
2023/10/21 08:30:03;;;;;;;7.95;5.60;;;12.70;99.90;;;;;;5092311;28;20277;-71
2023/10/21 08:32:29;;;;;;;10.00;5.28;;;12.80;99.90;;;;;;5081812;28;20051;-71
2023/10/21 08:34:58;;;;;;;9.15;5.47;;;12.90;99.90;;;;;;5104385;28;20037;-71
2023/10/21 08:37:24;;;;;;;9.20;5.57;;;13.10;99.90;;;;;;5090564;28;20040;-71
2023/10/21 08:39:49;;;;;;;9.05;6.05;;;13.20;99.90;;;;;;5080591;28;20055;-71
2023/10/21 08:42:18;;;;;;;8.10;5.18;;;13.40;99.90;;;;;;5091373;28;20037;-71
2023/10/21 08:44:48;;;;;;;7.55;5.03;;;13.40;99.90;;;;;;5074786;28;20043;-71
2023/10/21 08:47:17;;;;;;;7.32;5.03;;;13.60;99.90;;;;;;5083410;28;20137;-70
2023/10/21 08:49:45;;;;;;;9.88;5.15;;;13.60;99.90;;;;;;5080157;28;20055;-70
2023/10/21 08:52:14;;;;;;;7.80;5.28;;;13.70;99.90;;;;;;5079862;28;20040;-70
2023/10/21 08:54:43;;;;;;;9.63;4.18;;;13.80;99.90;;;;;;5097750;28;20052;-70
2023/10/21 08:57:09;;;;;;;7.85;4.57;;;13.90;99.90;;;;;;5109376;28;20107;-70
2023/10/21 08:59:36;;;;;;;7.82;4.75;;;14.00;99.90;;;;;;5080176;28;20052;-70
2023/10/21 09:02:04;;;;;;;8.25;4.93;;;14.20;99.90;;;;;;5078862;28;20089;-70
2023/10/21 09:04:32;;;;;;;6.97;4.72;;;14.30;99.90;;;;;;5088114;28;20070;-69
2023/10/21 09:06:59;;;;;;;6.78;4.55;;;14.30;99.90;;;;;;5061309;28;20036;-68
2023/10/21 09:09:29;;;;;;;6.95;3.75;;;14.40;99.90;;;;;;5093083;28;20078;-68
2023/10/21 09:12:05;;;;;;;7.28;4.35;;;14.30;99.90;;;;;;5080698;28;20051;-69
2023/10/21 09:14:52;;;;;;;6.43;4.15;;;14.30;99.90;;;;;;5081434;28;20080;-68
2023/10/21 09:17:28;;;;;;;8.88;4.55;;;14.30;99.90;;;;;;5088150;28;20105;-69
2023/10/21 09:19:53;;;;;;;6.20;4.28;;;14.30;99.90;;;;;;5096900;28;20044;-69
2023/10/21 09:22:25;;;;;;;7.13;3.88;;;14.30;99.90;;;;;;5094320;28;20052;-69
2023/10/21 09:25:10;;;;;;;5.60;4.00;;;14.30;99.90;;;;;;5088340;28;20040;-69
2023/10/21 09:27:38;;;;;;;6.18;3.78;;;14.40;99.90;;;;;;5081591;28;20048;-70
2023/10/21 09:30:04;;;;;;;7.03;4.30;;;14.50;99.90;;;;;;5094064;28;20430;-69
2023/10/21 09:32:30;;;;;;;6.28;3.40;;;14.50;99.90;;;;;;5099750;28;20055;-69
2023/10/21 09:35:14;;;;;;;5.65;3.40;;;14.50;99.90;;;;;;5106551;28;20047;-69
2023/10/21 09:37:40;;;;;;;5.97;3.28;;;14.50;99.90;;;;;;5113909;27;20044;-69
2023/10/21 09:40:06;;;;;;;5.05;3.33;;;14.40;99.90;;;;;;5122312;27;20043;-69
2023/10/21 09:42:42;;;;;;;6.45;3.60;;;14.40;99.90;;;;;;5125531;27;20035;-70
2023/10/21 09:45:10;;;;;;;6.22;3.42;;;14.30;99.90;;;;;;5114054;27;20039;-69
2023/10/21 09:47:41;;;;;;;6.93;3.13;;;14.30;99.90;;;;;;5064201;28;20040;-70
2023/10/21 09:50:10;;;;;;;6.57;3.38;;;14.20;99.90;;;;;;5102618;28;20059;-69
2023/10/21 09:52:56;;;;;;;5.75;3.10;;;14.20;99.90;;;;;;5102550;28;20051;-70
2023/10/21 09:55:27;;;;;;;4.03;2.65;;;14.20;99.90;;;;;;5087835;28;20548;-68
2023/10/21 09:57:54;;;;;;;4.32;1.60;;;14.20;99.90;;;;;;5110691;28;20456;-70
2023/10/21 10:00:20;;;;;;;3.83;1.50;;;14.20;99.90;;;;;;5102780;28;20048;-69
2023/10/21 10:02:53;;;;;;;1.73;1.00;;;14.20;99.90;;;;;;5083724;28;20036;-70
2023/10/21 10:05:20;;;;;;;2.05;1.10;;;14.10;99.90;;;;;;5104722;28;20052;-70
2023/10/21 10:07:48;;;;;;;3.80;1.35;;;14.00;99.90;;;;;;5088583;28;20044;-70
2023/10/21 10:10:20;;;;;;;2.25;1.20;;;13.90;99.90;;;;;;5098495;28;20146;-71
2023/10/21 10:13:01;;;;;;;3.22;1.55;;;13.80;99.90;;;;;;5068552;28;20480;-70
2023/10/21 10:15:32;;;;;;;3.17;1.95;;;13.80;99.90;;;;;;5108968;28;20055;-70
2023/10/21 10:18:02;;;;;;;3.53;1.38;;;13.70;99.90;;;;;;5085361;28;20042;-70
2023/10/21 10:20:29;;;;;;;2.88;1.33;;;13.70;99.90;;;;;;5084044;28;20055;-71
2023/10/21 10:23:00;;;;;;;1.80;1.00;;;13.70;99.90;;;;;;5069076;28;20242;-71
2023/10/21 10:25:39;;;;;;;2.65;1.20;;;13.80;99.90;;;;;;5084455;28;20101;-70
2023/10/21 10:28:11;;;;;;;1.63;0.82;;;14.00;99.90;;;;;;5082871;28;20051;-70
2023/10/21 10:30:44;;;;;;;2.65;0.80;;;14.40;99.90;;;;;;5098252;28;20090;-70
2023/10/21 10:33:15;;;;;;;1.10;0.60;;;14.80;99.90;;;;;;5085382;28;20044;-70
2023/10/21 10:35:47;;;;;;;1.10;0.50;;;15.20;99.90;;;;;;5081449;28;20032;-71
2023/10/21 10:38:34;;;;;;;2.22;0.70;;;15.50;99.90;;;;;;5105936;28;20610;-70
2023/10/21 10:41:06;;;;;;;;;;;15.60;99.90;;;;;;5098989;28;20464;-71
2023/10/21 10:43:39;;;;;;;1.10;0.70;;;15.70;99.90;;;;;;5074028;28;19934;-71
2023/10/21 10:46:06;;;;;;;1.30;0.70;;;15.50;99.90;;;;;;5077979;28;20089;-71
2023/10/21 10:48:32;;;;;;;1.10;0.50;;;15.50;99.90;;;;;;5091776;28;20054;-71
2023/10/21 10:51:00;;;;;;;1.02;0.60;;;15.50;99.90;;;;;;5070758;28;20538;-71
2023/10/21 10:53:27;;;;;;;2.10;0.73;;;15.40;99.90;;;;;;5071306;28;20071;-69
2023/10/21 10:55:57;;;;;;;1.85;0.60;;;15.60;99.90;;;;;;5088518;28;20069;-70
2023/10/21 10:58:26;;;;;;;1.73;0.60;;;15.80;99.90;;;;;;5091178;28;20055;-70
2023/10/21 11:00:52;;;;;;;2.10;0.70;;;15.80;99.90;;;;;;5081968;28;20501;-70
2023/10/21 11:03:29;;;;;;;0.77;0.50;;;15.40;99.90;;;;;;5083515;28;20044;-70
2023/10/21 11:05:56;;;;;;;1.70;0.65;;;15.20;99.90;;;;;;5099839;28;20054;-70
2023/10/21 11:08:22;;;;;;;1.17;0.60;;;15.00;99.90;;;;;;5105426;28;20048;-70
2023/10/21 11:10:48;;;;;;;1.95;0.80;;;14.90;99.90;;;;;;5084357;28;20071;-69
2023/10/21 11:13:14;;;;;;;2.38;1.40;;;14.70;99.90;;;;;;5106506;28;20047;-69
2023/10/21 11:15:54;;;;;;;1.08;0.50;;;14.60;99.90;;;;;;5082720;28;20040;-69
2023/10/21 11:18:21;;;;;;;1.98;0.63;;;14.60;99.90;;;;;;5081038;28;20033;-70
2023/10/21 11:20:51;;;;;;;2.03;0.90;;;14.60;99.90;;;;;;5082823;28;20047;-69
2023/10/21 11:23:18;;;;;;;2.22;0.75;;;14.70;99.90;;;;;;5102586;28;20333;-70
2023/10/21 11:25:50;;;;;;;1.88;0.70;;;14.70;99.90;;;;;;5098313;28;20052;-69
2023/10/21 11:28:16;;;;;;;2.25;0.75;;;14.70;99.90;;;;;;5104804;28;20097;-69
2023/10/21 11:30:44;;;;;;;1.30;0.65;;;14.70;99.90;;;;;;5071590;28;20128;-69
2023/10/21 11:33:10;;;;;;;1.52;0.75;;;14.70;99.90;;;;;;5084917;28;20079;-69
2023/10/21 11:35:41;;;;;;;1.17;0.60;;;14.70;99.90;;;;;;5116285;28;20100;-70
2023/10/21 11:38:07;;;;;;;1.63;0.70;;;14.80;99.90;;;;;;5082046;28;20044;-70
2023/10/21 11:40:34;;;;;;;2.53;0.77;;;14.80;99.90;;;;;;5090872;28;20107;-70
2023/10/21 11:43:04;;;;;;;3.03;0.75;;;14.80;99.90;;;;;;5075865;28;20055;-69
2023/10/21 11:45:30;;;;;;;1.63;0.60;;;14.80;99.90;;;;;;5092912;28;20048;-69
2023/10/21 11:48:01;;;;;;;0.93;0.50;;;14.80;99.90;;;;;;5098174;28;20135;-69
2023/10/21 11:50:35;;;;;;;0.90;0.50;;;14.70;99.90;;;;;;5087143;28;20103;-69
2023/10/21 11:53:06;;;;;;;1.27;0.70;;;14.60;99.90;;;;;;5103989;28;20046;-70
2023/10/21 11:56:02;;;;;;;2.33;0.60;;;14.60;99.90;;;;;;5081696;28;20060;-69
2023/10/21 12:20:43;;;;;;;1.00;0.60;;;14.30;99.90;;;;;;5071983;28;20048;-70
2023/10/21 12:31:23;;;;;;;1.48;0.60;;;14.50;99.90;;;;;;5099028;28;20470;-67
2023/10/21 12:36:33;;;;;;;1.98;0.55;;;14.20;99.90;;;;;;5081033;28;20047;-66
2023/10/21 12:41:42;;;;;;;0.95;0.60;;;14.70;99.90;;;;;;5114528;28;20133;-66
2023/10/21 12:44:13;;;;;;;1.55;0.70;;;14.70;99.90;;;;;;5099898;28;20040;-66
2023/10/21 12:46:41;;;;;;;2.45;0.70;;;14.70;99.90;;;;;;5117352;28;20081;-66
2023/10/21 12:49:16;;;;;;;1.48;0.50;;;14.70;99.90;;;;;;5090862;28;20411;-66
2023/10/21 12:51:41;;;;;;;2.72;0.70;;;14.60;99.90;;;;;;5102772;28;20113;-69
2023/10/21 12:54:10;;;;;;;2.30;0.80;;;14.70;99.90;;;;;;5103707;28;20491;-68
2023/10/21 12:56:40;;;;;;;1.27;0.55;;;14.70;99.90;;;;;;5102704;28;20039;-69
2023/10/21 12:59:06;;;;;;;1.65;0.77;;;14.80;99.90;;;;;;5086181;28;20068;-69
2023/10/21 13:01:34;;;;;;;2.33;0.80;;;14.90;99.90;;;;;;5091947;28;20058;-69
2023/10/21 13:04:00;;;;;;;2.47;0.60;;;14.90;99.90;;;;;;5070855;28;20057;-69
2023/10/21 13:06:26;;;;;;;1.50;0.80;;;14.90;99.90;;;;;;5092466;28;20036;-69
2023/10/21 13:08:52;;;;;;;1.70;0.60;;;15.00;99.90;;;;;;5106635;27;20673;-69
2023/10/21 13:11:18;;;;;;;1.77;0.80;;;15.00;99.90;;;;;;5102022;28;20043;-69
2023/10/21 13:13:45;;;;;;;2.65;0.80;;;15.00;99.90;;;;;;5083485;28;20044;-69
2023/10/21 13:16:10;;;;;;;1.80;0.60;;;15.00;99.90;;;;;;5119962;28;20036;-68
2023/10/21 13:18:37;;;;;;;1.80;0.70;;;14.90;99.90;;;;;;5097426;28;20055;-68
2023/10/21 13:21:06;;;;;;;2.58;0.90;;;14.90;99.90;;;;;;5085197;28;20052;-69
2023/10/21 13:23:34;;;;;;;2.40;0.68;;;14.90;99.90;;;;;;5072794;28;20543;-69
2023/10/21 13:26:06;;;;;;;3.08;0.88;;;14.90;99.90;;;;;;5102089;28;20047;-68